createdAt,value
2018-06-28T00:02:01.187Z,95.80
2018-06-28T00:04:29.618Z,95.80
2018-06-28T00:06:57.979Z,95.80
2018-06-28T00:09:26.394Z,95.80
2018-06-28T00:11:54.777Z,95.90
2018-06-28T00:14:23.121Z,96.20
2018-06-28T00:16:51.683Z,96.30
2018-06-28T00:19:20.029Z,96.50
2018-06-28T00:21:50.814Z,96.70
2018-06-28T00:24:19.197Z,97.00
2018-06-28T00:26:47.603Z,97.10
2018-06-28T00:29:15.963Z,97.20
2018-06-28T00:31:44.311Z,97.40
2018-06-28T00:34:12.684Z,97.50
2018-06-28T00:36:41.045Z,97.50
2018-06-28T00:39:10.593Z,97.50
2018-06-28T00:41:39.238Z,97.60
2018-06-28T00:44:07.624Z,97.70
2018-06-28T00:46:36.043Z,97.80
2018-06-28T00:49:04.413Z,97.80
2018-06-28T00:51:32.743Z,97.90
2018-06-28T00:54:01.086Z,98.10
2018-06-28T00:56:29.450Z,98.10
2018-06-28T00:58:57.861Z,98.20
2018-06-28T01:01:26.279Z,98.20
2018-06-28T01:03:54.691Z,98.40
2018-06-28T01:06:23.135Z,98.40
2018-06-28T01:08:51.502Z,98.50
2018-06-28T01:11:19.831Z,98.50
2018-06-28T01:13:48.284Z,98.50
2018-06-28T01:16:16.761Z,98.40
2018-06-28T01:18:45.124Z,98.50
2018-06-28T01:21:13.469Z,98.60
2018-06-28T01:23:41.810Z,98.70
2018-06-28T01:26:10.174Z,98.50
2018-06-28T01:28:38.503Z,98.50
2018-06-28T01:31:06.806Z,98.40
2018-06-28T01:33:35.131Z,98.40
2018-06-28T01:36:03.460Z,98.40
2018-06-28T01:38:31.849Z,98.60
2018-06-28T01:41:00.149Z,98.80
2018-06-28T01:43:42.502Z,98.90
2018-06-28T01:46:10.874Z,99.10
2018-06-28T01:48:39.218Z,99.10
2018-06-28T01:51:07.665Z,99.00
2018-06-28T01:53:36.067Z,98.90
2018-06-28T01:56:04.479Z,98.90
2018-06-28T01:58:32.859Z,98.90
2018-06-28T02:01:01.531Z,98.70
2018-06-28T02:03:29.897Z,98.70
2018-06-28T02:05:58.261Z,98.80
2018-06-28T02:08:26.654Z,98.90
2018-06-28T02:10:55.001Z,98.90
2018-06-28T02:13:23.362Z,99.10
2018-06-28T02:15:51.729Z,99.20
2018-06-28T02:18:20.137Z,99.20
2018-06-28T02:20:48.524Z,99.40
2018-06-28T02:23:16.900Z,99.50
2018-06-28T02:25:45.257Z,99.60
2018-06-28T02:28:13.647Z,99.70
2018-06-28T02:30:42.019Z,99.80
2018-06-28T02:33:10.322Z,99.90
2018-06-28T02:35:38.672Z,99.90
2018-06-28T02:38:07.003Z,99.90
2018-06-28T02:40:35.414Z,99.90
2018-06-28T02:43:03.722Z,99.90
2018-06-28T02:45:32.061Z,99.90
2018-06-28T02:50:28.391Z,99.90
2018-06-28T02:52:56.767Z,99.90
2018-06-28T02:55:25.080Z,99.90
2018-06-28T02:57:53.434Z,99.90
2018-06-28T03:00:21.773Z,99.90
2018-06-28T03:02:50.104Z,99.90
2018-06-28T03:05:18.497Z,99.90
2018-06-28T03:07:46.815Z,99.90
2018-06-28T03:10:15.128Z,99.90
2018-06-28T03:12:43.467Z,99.90
2018-06-28T03:15:11.808Z,99.90
2018-06-28T03:17:40.146Z,99.90
2018-06-28T03:20:08.521Z,99.90
2018-06-28T03:22:36.839Z,99.90
2018-06-28T03:25:05.212Z,99.90
2018-06-28T03:27:33.553Z,99.90
2018-06-28T03:30:01.902Z,99.90
2018-06-28T03:32:30.230Z,99.90
2018-06-28T03:34:58.664Z,99.90
2018-06-28T03:37:27.039Z,99.90
2018-06-28T03:39:55.353Z,99.90
2018-06-28T03:42:23.653Z,99.90
2018-06-28T03:44:51.998Z,99.90
2018-06-28T03:47:20.314Z,99.90
2018-06-28T03:49:48.684Z,99.90
2018-06-28T03:52:16.977Z,99.90
2018-06-28T03:54:45.373Z,99.90
2018-06-28T03:57:13.742Z,99.90
2018-06-28T03:59:42.100Z,99.90
2018-06-28T04:02:10.464Z,99.90
2018-06-28T04:04:38.860Z,99.90
2018-06-28T04:07:07.215Z,99.90
2018-06-28T04:09:35.546Z,99.90
2018-06-28T04:12:03.952Z,99.90
2018-06-28T04:14:32.296Z,99.90
2018-06-28T04:17:00.619Z,99.90
2018-06-28T04:19:28.947Z,99.90
2018-06-28T04:21:57.317Z,99.90
2018-06-28T04:24:25.837Z,99.90
2018-06-28T04:26:54.186Z,99.90
2018-06-28T04:29:22.531Z,99.90
2018-06-28T04:31:50.910Z,99.90
2018-06-28T04:34:19.262Z,99.90
2018-06-28T04:36:47.644Z,99.90
2018-06-28T04:39:16.018Z,99.90
2018-06-28T04:41:44.410Z,99.90
2018-06-28T04:44:12.694Z,99.90
2018-06-28T04:46:41.043Z,99.90
2018-06-28T04:49:09.370Z,99.90
2018-06-28T04:51:37.670Z,99.90
2018-06-28T04:54:06.047Z,99.90
2018-06-28T04:56:34.397Z,99.90
2018-06-28T04:59:02.717Z,99.90
2018-06-28T05:01:31.126Z,99.80
2018-06-28T05:03:59.524Z,99.50
2018-06-28T05:06:27.914Z,99.10
2018-06-28T05:08:56.246Z,99.40
2018-06-28T05:11:24.581Z,99.60
2018-06-28T05:13:52.919Z,99.80
2018-06-28T05:16:21.231Z,99.90
2018-06-28T05:18:49.560Z,99.90
2018-06-28T05:21:17.882Z,99.90
2018-06-28T05:23:46.226Z,99.80
2018-06-28T05:26:14.663Z,99.70
2018-06-28T05:28:43.066Z,99.60
2018-06-28T05:31:11.411Z,99.70
2018-06-28T05:33:39.727Z,99.40
2018-06-28T05:36:08.020Z,99.30
2018-06-28T05:38:36.349Z,98.80
2018-06-28T05:41:04.687Z,98.50
2018-06-28T05:43:33.041Z,98.50
2018-06-28T05:46:01.335Z,97.50
2018-06-28T05:48:29.670Z,97.40
2018-06-28T05:50:58.069Z,97.40
2018-06-28T05:53:26.443Z,97.60
2018-06-28T05:55:54.790Z,98.50
2018-06-28T05:58:23.128Z,98.10
2018-06-28T06:00:51.559Z,97.80
2018-06-28T06:03:19.946Z,97.20
2018-06-28T06:05:48.310Z,97.00
2018-06-28T06:08:16.776Z,95.80
2018-06-28T06:10:45.115Z,95.20
2018-06-28T06:13:13.449Z,94.70
2018-06-28T06:15:41.913Z,94.20
2018-06-28T06:18:10.251Z,94.40
2018-06-28T06:20:38.697Z,93.40
2018-06-28T06:23:07.011Z,93.20
2018-06-28T06:25:35.357Z,92.50
2018-06-28T06:28:03.750Z,92.00
2018-06-28T06:30:32.098Z,91.90
2018-06-28T06:33:00.424Z,92.10
2018-06-28T06:35:28.790Z,91.80
2018-06-28T06:37:57.113Z,91.00
2018-06-28T06:40:25.598Z,91.20
2018-06-28T06:42:53.916Z,91.40
2018-06-28T06:45:22.245Z,90.00
2018-06-28T06:50:18.620Z,88.50
2018-06-28T06:52:46.978Z,87.10
2018-06-28T06:55:15.358Z,86.40
2018-06-28T07:00:11.917Z,85.80
2018-06-28T07:02:40.277Z,85.80
2018-06-28T07:05:08.653Z,86.30
2018-06-28T07:07:37.052Z,85.10
2018-06-28T07:10:05.484Z,83.60
2018-06-28T07:12:33.818Z,84.30
2018-06-28T07:15:02.173Z,84.80
2018-06-28T07:19:58.619Z,80.90
2018-06-28T07:22:26.998Z,81.30
2018-06-28T07:24:55.372Z,81.30
2018-06-28T07:29:51.818Z,79.80
2018-06-28T07:32:20.170Z,83.20
2018-06-28T07:34:48.571Z,81.10
2018-06-28T07:37:17.150Z,81.40
2018-06-28T07:39:45.526Z,80.90
2018-06-28T07:42:13.877Z,80.10
2018-06-28T07:44:42.246Z,77.90
2018-06-28T07:47:10.624Z,77.70
2018-06-28T07:49:39.058Z,79.00
2018-06-28T07:52:07.997Z,80.30
2018-06-28T07:54:36.380Z,79.40
2018-06-28T07:57:04.782Z,78.50
2018-06-28T07:59:33.185Z,76.90
2018-06-28T08:04:29.772Z,79.20
2018-06-28T08:06:58.054Z,77.20
2018-06-28T08:09:26.478Z,79.60
2018-06-28T08:11:54.817Z,79.80
2018-06-28T08:14:23.224Z,80.30
2018-06-28T08:16:51.588Z,79.80
2018-06-28T08:19:19.936Z,80.10
2018-06-28T08:21:48.335Z,79.00
2018-06-28T08:24:16.686Z,76.60
2018-06-28T08:26:45.060Z,75.50
2018-06-28T08:29:13.913Z,76.00
2018-06-28T08:31:42.299Z,75.70
2018-06-28T08:34:10.637Z,75.90
2018-06-28T08:36:39.094Z,76.80
2018-06-28T08:39:08.319Z,78.40
2018-06-28T08:41:36.855Z,77.50
2018-06-28T08:44:05.647Z,77.80
2018-06-28T08:46:34.498Z,76.70
2018-06-28T08:49:03.012Z,76.90
2018-06-28T08:51:31.316Z,77.40
2018-06-28T08:53:59.669Z,76.60
2018-06-28T08:56:28.141Z,77.70
2018-06-28T08:58:56.515Z,79.00
2018-06-28T09:01:25.564Z,76.20
2018-06-28T09:03:53.937Z,75.00
2018-06-28T09:06:22.327Z,75.50
2018-06-28T09:08:50.771Z,75.80
2018-06-28T09:11:19.825Z,75.70
2018-06-28T09:13:48.717Z,76.20
2018-06-28T09:16:17.103Z,75.10
2018-06-28T09:18:45.461Z,77.10
2018-06-28T09:21:13.847Z,82.20
2018-06-28T09:23:42.249Z,77.20
2018-06-28T09:26:10.629Z,78.40
2018-06-28T09:28:39.031Z,74.40
2018-06-28T09:31:07.452Z,75.60
2018-06-28T09:33:35.849Z,74.90
2018-06-28T09:36:04.306Z,71.70
2018-06-28T09:38:32.708Z,72.70
2018-06-28T09:41:01.080Z,73.80
2018-06-28T09:43:29.442Z,73.20
2018-06-28T09:45:58.029Z,70.60
2018-06-28T09:48:26.427Z,72.10
2018-06-28T09:50:55.404Z,71.70
2018-06-28T09:53:23.905Z,74.00
2018-06-28T09:55:52.350Z,72.30
2018-06-28T09:58:20.876Z,72.80
2018-06-28T10:00:49.236Z,71.30
2018-06-28T10:03:17.658Z,72.00
2018-06-28T10:05:46.028Z,72.00
2018-06-28T10:08:14.404Z,72.80
2018-06-28T10:10:42.772Z,74.50
2018-06-28T10:13:11.178Z,73.30
2018-06-28T10:15:39.848Z,72.30
2018-06-28T10:18:08.355Z,71.00
2018-06-28T10:20:36.768Z,71.80
2018-06-28T10:23:05.193Z,73.50
2018-06-28T10:28:01.661Z,75.60
2018-06-28T10:30:30.063Z,74.70
2018-06-28T10:32:58.529Z,76.00
2018-06-28T10:35:26.906Z,73.80
2018-06-28T10:37:56.089Z,72.20
2018-06-28T10:40:24.466Z,74.10
2018-06-28T10:42:52.832Z,74.50
2018-06-28T10:45:21.238Z,75.70
2018-06-28T10:47:49.669Z,73.20
2018-06-28T10:50:18.030Z,74.30
2018-06-28T10:52:46.399Z,74.40
2018-06-28T10:55:14.801Z,74.90
2018-06-28T10:57:43.195Z,72.50
2018-06-28T11:00:11.532Z,69.70
2018-06-28T11:02:41.013Z,68.40
2018-06-28T11:05:09.409Z,69.20
2018-06-28T11:07:38.839Z,70.00
2018-06-28T11:10:07.516Z,70.70
2018-06-28T11:12:35.925Z,72.00
2018-06-28T11:15:04.756Z,72.60
2018-06-28T11:17:33.113Z,73.10
2018-06-28T11:20:01.612Z,71.40
2018-06-28T11:22:30.033Z,71.90
2018-06-28T11:24:58.435Z,72.80
2018-06-28T11:27:26.879Z,74.20
2018-06-28T11:29:55.278Z,73.40
2018-06-28T11:32:23.667Z,70.60
2018-06-28T11:34:52.025Z,71.00
2018-06-28T11:37:20.472Z,68.50
2018-06-28T11:39:48.809Z,68.60
2018-06-28T11:42:17.193Z,71.40
2018-06-28T11:47:13.661Z,70.40
2018-06-28T11:49:42.213Z,71.60
2018-06-28T11:52:10.628Z,70.50
2018-06-28T11:54:39.028Z,68.70
2018-06-28T11:57:08.416Z,70.40
2018-06-28T11:59:36.831Z,72.10
2018-06-28T12:02:05.146Z,72.90
2018-06-28T12:04:33.532Z,72.30
2018-06-28T12:07:02.015Z,74.60
2018-06-28T12:09:30.462Z,74.40
2018-06-28T12:11:58.901Z,70.90
2018-06-28T12:14:27.352Z,71.60
2018-06-28T12:19:23.811Z,69.20
2018-06-28T12:21:52.217Z,68.20
2018-06-28T12:24:20.558Z,70.00
2018-06-28T12:26:48.940Z,71.90
2018-06-28T12:29:17.245Z,70.70
2018-06-28T12:31:45.608Z,67.40
2018-06-28T12:34:14.106Z,68.10
2018-06-28T12:36:43.347Z,68.50
2018-06-28T12:39:11.752Z,68.30
2018-06-28T12:41:40.160Z,66.30
2018-06-28T12:44:08.526Z,64.80
2018-06-28T12:47:48.464Z,67.40
2018-06-28T12:50:16.943Z,63.10
2018-06-28T12:52:47.600Z,66.00
2018-06-28T12:55:16.999Z,67.70
2018-06-28T12:57:45.721Z,68.00
2018-06-28T13:00:14.529Z,64.70
2018-06-28T13:02:43.220Z,63.50
2018-06-28T13:05:12.440Z,68.10
2018-06-28T13:07:40.872Z,66.10
2018-06-28T13:10:11.732Z,66.70
2018-06-28T13:12:40.393Z,68.10
2018-06-28T13:15:10.054Z,70.70
2018-06-28T13:20:08.377Z,73.00
2018-06-28T13:22:37.915Z,72.80
2018-06-28T13:25:07.247Z,71.50
2018-06-28T13:30:05.117Z,66.00
2018-06-28T13:32:34.513Z,64.90
2018-06-28T13:35:03.522Z,61.20
2018-06-28T13:37:31.958Z,62.10
2018-06-28T13:40:00.284Z,65.10
2018-06-28T13:42:28.679Z,68.80
2018-06-28T13:44:57.095Z,68.80
2018-06-28T13:47:25.583Z,71.20
2018-06-28T13:49:53.982Z,70.40
2018-06-28T13:52:22.388Z,70.80
2018-06-28T13:54:50.761Z,70.50
2018-06-28T13:57:19.067Z,67.90
2018-06-28T13:59:47.475Z,67.50
2018-06-28T14:02:15.816Z,65.70
2018-06-28T14:04:44.150Z,62.30
2018-06-28T14:07:12.516Z,63.10
2018-06-28T14:09:40.962Z,61.40
2018-06-28T14:12:09.343Z,62.90
2018-06-28T14:14:37.760Z,63.10
2018-06-28T14:17:06.154Z,62.70
2018-06-28T14:19:34.565Z,62.70
2018-06-28T14:22:03.061Z,67.00
2018-06-28T14:24:32.348Z,67.00
2018-06-28T14:27:02.934Z,63.30
2018-06-28T14:29:33.002Z,60.60
2018-06-28T14:32:01.469Z,63.20
2018-06-28T14:34:29.874Z,61.30
2018-06-28T14:36:58.257Z,63.60
2018-06-28T14:39:26.752Z,64.80
2018-06-28T14:41:55.234Z,66.10
2018-06-28T14:44:23.649Z,67.00
2018-06-28T14:46:52.074Z,67.70
2018-06-28T14:49:20.518Z,69.60
2018-06-28T14:51:48.921Z,70.30
2018-06-28T14:54:17.316Z,69.90
2018-06-28T14:56:45.910Z,68.80
2018-06-28T14:59:14.316Z,62.30
2018-06-28T15:01:42.737Z,58.30
2018-06-28T15:06:39.286Z,58.70
2018-06-28T15:09:08.987Z,57.20
2018-06-28T15:11:37.408Z,61.40
2018-06-28T15:14:06.117Z,60.40
2018-06-28T15:16:34.520Z,59.70
2018-06-28T15:19:02.894Z,59.10
2018-06-28T15:21:31.535Z,59.50
2018-06-28T15:24:00.178Z,57.10
2018-06-28T15:28:57.336Z,58.30
2018-06-28T15:31:26.873Z,59.50
2018-06-28T15:33:55.467Z,60.00
2018-06-28T15:36:23.876Z,58.60
2018-06-28T15:38:52.335Z,57.00
2018-06-28T15:41:21.092Z,58.00
2018-06-28T15:43:49.516Z,59.40
2018-06-28T15:46:17.933Z,58.60
2018-06-28T15:48:46.459Z,58.00
2018-06-28T15:51:14.851Z,56.80
2018-06-28T15:53:43.337Z,57.30
2018-06-28T15:56:11.748Z,57.10
2018-06-28T15:58:40.679Z,56.10
2018-06-28T16:01:09.043Z,56.00
2018-06-28T16:03:37.432Z,56.60
2018-06-28T16:06:06.875Z,57.10
2018-06-28T16:11:13.319Z,58.70
2018-06-28T16:13:41.841Z,59.80
2018-06-28T16:16:10.269Z,59.30
2018-06-28T16:21:07.414Z,58.90
2018-06-28T16:23:35.917Z,58.50
2018-06-28T16:26:04.286Z,58.10
2018-06-28T16:28:32.882Z,59.90
2018-06-28T16:31:01.407Z,60.20
2018-06-28T16:33:29.792Z,61.60
2018-06-28T16:35:58.232Z,64.80
2018-06-28T16:38:26.622Z,65.90
2018-06-28T16:40:55.065Z,63.50
2018-06-28T16:45:51.620Z,64.30
2018-06-28T16:48:20.004Z,63.40
2018-06-28T16:50:48.565Z,65.60
2018-06-28T16:53:16.965Z,65.60
2018-06-28T16:55:45.444Z,65.80
2018-06-28T16:58:13.872Z,66.60
2018-06-28T17:00:42.559Z,67.30
2018-06-28T17:03:13.928Z,67.20
2018-06-28T17:05:42.634Z,67.80
2018-06-28T17:08:11.802Z,68.70
2018-06-28T17:10:40.254Z,69.40
2018-06-28T17:13:09.364Z,70.40
2018-06-28T17:15:38.236Z,71.00
2018-06-28T17:18:06.673Z,71.20
2018-06-28T17:20:35.195Z,71.80
2018-06-28T17:23:03.664Z,71.50
2018-06-28T17:25:32.146Z,71.80
2018-06-28T17:28:00.606Z,72.30
2018-06-28T17:30:29.164Z,72.30
2018-06-28T17:32:57.631Z,72.80
2018-06-28T17:35:26.587Z,73.40
2018-06-28T17:37:55.022Z,73.60
2018-06-28T17:40:23.446Z,73.80
2018-06-28T17:42:51.883Z,73.80
2018-06-28T17:45:20.220Z,74.50
2018-06-28T17:47:49.193Z,74.50
2018-06-28T17:50:17.595Z,74.30
2018-06-28T17:52:45.933Z,74.50
2018-06-28T17:55:14.403Z,75.00
2018-06-28T18:00:11.745Z,76.40
2018-06-28T18:02:40.771Z,76.10
2018-06-28T18:05:09.276Z,75.70
2018-06-28T18:07:37.713Z,76.70
2018-06-28T18:10:06.237Z,76.40
2018-06-28T18:15:02.870Z,77.00
2018-06-28T18:17:31.264Z,77.50
2018-06-28T18:19:59.679Z,77.60
2018-06-28T18:22:28.069Z,78.10
2018-06-28T18:24:56.465Z,77.80
2018-06-28T18:27:25.011Z,77.70
2018-06-28T18:29:53.473Z,78.40
2018-06-28T18:32:21.882Z,78.70
2018-06-28T18:34:50.256Z,78.10
2018-06-28T18:37:18.639Z,77.80
2018-06-28T18:39:47.005Z,77.70
2018-06-28T18:42:15.354Z,77.60
2018-06-28T18:44:44.021Z,77.70
2018-06-28T18:47:12.455Z,78.00
2018-06-28T18:49:40.867Z,77.20
2018-06-28T18:52:09.282Z,77.60
2018-06-28T18:54:37.655Z,78.00
2018-06-28T18:57:06.042Z,78.40
2018-06-28T18:59:34.425Z,78.80
2018-06-28T19:02:02.951Z,79.20
2018-06-28T19:04:31.338Z,79.10
2018-06-28T19:06:59.686Z,79.20
2018-06-28T19:09:33.438Z,79.40
2018-06-28T19:12:01.908Z,79.40
2018-06-28T19:14:35.601Z,79.70
2018-06-28T19:17:04.021Z,80.20
2018-06-28T19:19:32.381Z,80.00
2018-06-28T19:22:06.198Z,80.20
2018-06-28T19:27:02.695Z,80.70
2018-06-28T19:29:36.331Z,80.60
2018-06-28T19:32:10.087Z,81.20
2018-06-28T19:34:38.520Z,80.90
2018-06-28T19:37:06.935Z,81.50
2018-06-28T19:39:41.050Z,81.80
2018-06-28T19:42:14.722Z,81.80
2018-06-28T19:47:11.257Z,82.30
2018-06-28T19:49:44.857Z,82.20
2018-06-28T19:52:18.561Z,82.90
2018-06-28T19:54:46.979Z,83.20
2018-06-28T19:57:15.536Z,83.60
2018-06-28T19:59:46.989Z,83.70
2018-06-28T20:02:21.582Z,84.20
2018-06-28T20:04:49.968Z,84.40
2018-06-28T20:07:18.362Z,84.70
2018-06-28T20:09:46.766Z,83.70
2018-06-28T20:12:20.545Z,83.90
2018-06-28T20:14:54.112Z,85.50
2018-06-28T20:17:27.819Z,85.30
2018-06-28T20:20:01.409Z,85.30
2018-06-28T20:22:29.821Z,85.70
2018-06-28T20:24:58.209Z,85.40
2018-06-28T20:27:31.873Z,85.60
2018-06-28T20:30:05.722Z,85.30
2018-06-28T20:32:39.558Z,84.80
2018-06-28T20:35:07.954Z,84.20
2018-06-28T20:37:36.411Z,84.10
2018-06-28T20:42:32.981Z,83.80
2018-06-28T20:45:01.523Z,83.40
2018-06-28T20:47:29.946Z,83.40
2018-06-28T20:49:58.372Z,83.30
2018-06-28T20:52:26.773Z,83.30
2018-06-28T20:54:55.197Z,83.20
2018-06-28T20:57:23.575Z,83.50
2018-06-28T20:59:51.957Z,84.50
2018-06-28T21:02:20.378Z,85.60
2018-06-28T21:04:48.805Z,86.60
2018-06-28T21:07:17.243Z,85.80
2018-06-28T21:09:45.614Z,86.30
2018-06-28T21:12:13.973Z,86.20
2018-06-28T21:14:42.369Z,86.50
2018-06-28T21:17:10.724Z,86.40
2018-06-28T21:19:39.104Z,86.30
2018-06-28T21:22:07.487Z,86.30
2018-06-28T21:24:35.911Z,87.40
2018-06-28T21:27:04.378Z,87.00
2018-06-28T21:29:32.729Z,86.90
2018-06-28T21:32:01.093Z,87.50
2018-06-28T21:34:29.722Z,88.00
2018-06-28T21:36:58.108Z,87.70
2018-06-28T21:39:26.470Z,88.50
2018-06-28T21:41:54.801Z,88.40
2018-06-28T21:44:23.132Z,89.10
2018-06-28T21:46:51.541Z,88.20
2018-06-28T21:49:19.892Z,88.30
2018-06-28T21:51:48.333Z,88.10
2018-06-28T21:54:16.757Z,89.10
2018-06-28T21:56:45.153Z,89.10
2018-06-28T21:59:13.487Z,88.90
2018-06-28T22:01:54.905Z,89.20
2018-06-28T22:04:23.300Z,89.50
2018-06-28T22:06:51.745Z,89.20
2018-06-28T22:09:20.550Z,89.50
2018-06-28T22:11:49.135Z,89.70
2018-06-28T22:14:17.993Z,90.10
2018-06-28T22:16:46.265Z,90.10
2018-06-28T22:19:14.651Z,90.30
2018-06-28T22:21:42.974Z,90.40
2018-06-28T22:24:11.295Z,89.70
2018-06-28T22:26:39.778Z,90.00
2018-06-28T22:29:08.161Z,90.30
2018-06-28T22:31:36.518Z,89.90
2018-06-28T22:34:04.910Z,90.10
2018-06-28T22:36:33.278Z,89.70
2018-06-28T22:39:01.753Z,88.60
2018-06-28T22:41:30.156Z,88.10
2018-06-28T22:43:58.516Z,88.10
2018-06-28T22:46:26.909Z,88.10
2018-06-28T22:48:55.272Z,88.40
2018-06-28T22:51:23.685Z,88.50
2018-06-28T22:53:52.010Z,87.40
2018-06-28T22:56:20.422Z,87.90
2018-06-28T22:58:48.802Z,87.80
2018-06-28T23:01:17.124Z,87.70
2018-06-28T23:03:45.501Z,88.40
2018-06-28T23:06:13.958Z,88.50
2018-06-28T23:08:42.360Z,88.40
2018-06-28T23:11:10.721Z,88.20
2018-06-28T23:13:39.101Z,88.60
2018-06-28T23:16:07.877Z,88.30
2018-06-28T23:18:36.276Z,88.60
2018-06-28T23:21:04.928Z,88.70
2018-06-28T23:23:33.320Z,88.60
2018-06-28T23:26:01.710Z,89.40
2018-06-28T23:28:30.161Z,89.10
2018-06-28T23:30:58.527Z,88.70
2018-06-28T23:33:26.864Z,88.70
2018-06-28T23:35:55.226Z,88.80
2018-06-28T23:38:23.625Z,88.80
2018-06-28T23:40:52.046Z,88.70
2018-06-28T23:43:20.352Z,89.40
2018-06-28T23:45:48.732Z,89.30
2018-06-28T23:48:17.116Z,90.10
2018-06-28T23:50:45.434Z,89.60
2018-06-28T23:53:13.804Z,90.00
2018-06-28T23:55:42.117Z,90.10
2018-06-28T23:58:10.461Z,90.30
